sensor_id;sensor_type;location;lat;lon;timestamp;P1;durP1;ratioP1;P2;durP2;ratioP2
55202;SDS011;41077;52.956;6.796;2023-04-15T00:02:16;11.13;;;6.80;;
55202;SDS011;41077;52.956;6.796;2023-04-15T00:04:46;13.90;;;6.38;;
55202;SDS011;41077;52.956;6.796;2023-04-15T00:07:12;14.13;;;7.20;;
55202;SDS011;41077;52.956;6.796;2023-04-15T00:09:43;18.27;;;6.32;;
55202;SDS011;41077;52.956;6.796;2023-04-15T00:12:09;20.50;;;7.30;;
55202;SDS011;41077;52.956;6.796;2023-04-15T00:14:36;18.50;;;7.68;;
55202;SDS011;41077;52.956;6.796;2023-04-15T00:17:02;15.27;;;7.90;;
55202;SDS011;41077;52.956;6.796;2023-04-15T00:19:28;11.43;;;7.53;;
55202;SDS011;41077;52.956;6.796;2023-04-15T00:21:55;13.85;;;7.20;;
55202;SDS011;41077;52.956;6.796;2023-04-15T00:24:21;9.35;;;7.00;;
55202;SDS011;41077;52.956;6.796;2023-04-15T00:26:47;12.27;;;8.00;;
55202;SDS011;41077;52.956;6.796;2023-04-15T00:29:13;11.98;;;7.60;;
55202;SDS011;41077;52.956;6.796;2023-04-15T00:31:39;15.15;;;7.50;;
55202;SDS011;41077;52.956;6.796;2023-04-15T00:34:06;13.57;;;8.02;;
55202;SDS011;41077;52.956;6.796;2023-04-15T00:36:31;13.65;;;7.57;;
55202;SDS011;41077;52.956;6.796;2023-04-15T00:38:59;13.88;;;6.88;;
55202;SDS011;41077;52.956;6.796;2023-04-15T00:41:25;11.55;;;7.30;;
55202;SDS011;41077;52.956;6.796;2023-04-15T00:43:50;12.90;;;7.50;;
55202;SDS011;41077;52.956;6.796;2023-04-15T00:46:16;13.93;;;7.68;;
55202;SDS011;41077;52.956;6.796;2023-04-15T00:48:45;17.20;;;8.38;;
55202;SDS011;41077;52.956;6.796;2023-04-15T00:51:12;14.88;;;8.55;;
55202;SDS011;41077;52.956;6.796;2023-04-15T00:53:38;17.75;;;8.48;;
55202;SDS011;41077;52.956;6.796;2023-04-15T00:56:04;12.25;;;7.32;;
55202;SDS011;41077;52.956;6.796;2023-04-15T00:58:30;19.33;;;8.93;;
55202;SDS011;41077;52.956;6.796;2023-04-15T01:00:56;14.50;;;7.97;;
55202;SDS011;41077;52.956;6.796;2023-04-15T01:03:23;18.90;;;8.63;;
55202;SDS011;41077;52.956;6.796;2023-04-15T01:05:49;14.20;;;7.82;;
55202;SDS011;41077;52.956;6.796;2023-04-15T01:08:22;17.73;;;9.10;;
55202;SDS011;41077;52.956;6.796;2023-04-15T01:10:57;14.77;;;8.82;;
55202;SDS011;41077;52.956;6.796;2023-04-15T01:13:25;16.60;;;9.25;;
55202;SDS011;41077;52.956;6.796;2023-04-15T01:15:51;15.73;;;8.70;;
55202;SDS011;41077;52.956;6.796;2023-04-15T01:18:18;14.27;;;8.10;;
55202;SDS011;41077;52.956;6.796;2023-04-15T01:20:44;14.82;;;8.93;;
55202;SDS011;41077;52.956;6.796;2023-04-15T01:23:10;21.08;;;9.52;;
55202;SDS011;41077;52.956;6.796;2023-04-15T01:25:37;23.60;;;9.32;;
55202;SDS011;41077;52.956;6.796;2023-04-15T01:28:03;14.85;;;8.80;;
55202;SDS011;41077;52.956;6.796;2023-04-15T01:30:33;19.05;;;9.95;;
55202;SDS011;41077;52.956;6.796;2023-04-15T01:32:59;16.13;;;9.90;;
55202;SDS011;41077;52.956;6.796;2023-04-15T01:35:25;20.23;;;10.10;;
55202;SDS011;41077;52.956;6.796;2023-04-15T01:37:51;15.23;;;9.43;;
55202;SDS011;41077;52.956;6.796;2023-04-15T01:40:18;14.80;;;8.70;;
55202;SDS011;41077;52.956;6.796;2023-04-15T01:42:44;14.02;;;8.80;;
55202;SDS011;41077;52.956;6.796;2023-04-15T01:45:10;20.05;;;11.15;;
55202;SDS011;41077;52.956;6.796;2023-04-15T01:47:38;13.15;;;10.15;;
55202;SDS011;41077;52.956;6.796;2023-04-15T01:50:04;18.67;;;9.77;;
55202;SDS011;41077;52.956;6.796;2023-04-15T01:52:30;17.63;;;10.43;;
55202;SDS011;41077;52.956;6.796;2023-04-15T01:54:56;20.02;;;9.93;;
55202;SDS011;41077;52.956;6.796;2023-04-15T01:57:22;16.65;;;9.82;;
55202;SDS011;41077;52.956;6.796;2023-04-15T01:59:47;21.58;;;11.90;;
55202;SDS011;41077;52.956;6.796;2023-04-15T02:02:13;13.73;;;10.10;;
55202;SDS011;41077;52.956;6.796;2023-04-15T02:04:39;17.75;;;11.32;;
55202;SDS011;41077;52.956;6.796;2023-04-15T02:07:05;18.95;;;10.93;;
55202;SDS011;41077;52.956;6.796;2023-04-15T02:09:31;18.90;;;10.45;;
55202;SDS011;41077;52.956;6.796;2023-04-15T02:11:57;17.77;;;10.52;;
55202;SDS011;41077;52.956;6.796;2023-04-15T02:14:22;20.90;;;10.98;;
55202;SDS011;41077;52.956;6.796;2023-04-15T02:16:48;19.42;;;10.95;;
55202;SDS011;41077;52.956;6.796;2023-04-15T02:19:14;16.67;;;11.90;;
55202;SDS011;41077;52.956;6.796;2023-04-15T02:21:39;19.73;;;11.93;;
55202;SDS011;41077;52.956;6.796;2023-04-15T02:24:05;16.27;;;10.40;;
55202;SDS011;41077;52.956;6.796;2023-04-15T02:26:31;17.83;;;11.75;;
55202;SDS011;41077;52.956;6.796;2023-04-15T02:28:57;21.05;;;11.98;;
55202;SDS011;41077;52.956;6.796;2023-04-15T02:31:24;19.98;;;11.38;;
55202;SDS011;41077;52.956;6.796;2023-04-15T02:33:50;21.33;;;11.77;;
55202;SDS011;41077;52.956;6.796;2023-04-15T02:36:16;18.90;;;11.15;;
55202;SDS011;41077;52.956;6.796;2023-04-15T02:38:41;18.98;;;12.65;;
55202;SDS011;41077;52.956;6.796;2023-04-15T02:41:10;20.65;;;12.88;;
55202;SDS011;41077;52.956;6.796;2023-04-15T02:43:36;18.52;;;12.15;;
55202;SDS011;41077;52.956;6.796;2023-04-15T02:46:03;18.75;;;11.32;;
55202;SDS011;41077;52.956;6.796;2023-04-15T02:48:30;18.55;;;13.45;;
55202;SDS011;41077;52.956;6.796;2023-04-15T02:53:41;20.15;;;12.60;;
55202;SDS011;41077;52.956;6.796;2023-04-15T02:56:07;26.38;;;13.60;;
55202;SDS011;41077;52.956;6.796;2023-04-15T02:58:34;16.67;;;12.27;;
55202;SDS011;41077;52.956;6.796;2023-04-15T03:01:00;20.35;;;11.75;;
55202;SDS011;41077;52.956;6.796;2023-04-15T03:03:26;24.60;;;12.38;;
55202;SDS011;41077;52.956;6.796;2023-04-15T03:05:52;20.70;;;12.57;;
55202;SDS011;41077;52.956;6.796;2023-04-15T03:08:18;19.75;;;12.93;;
55202;SDS011;41077;52.956;6.796;2023-04-15T03:10:45;23.27;;;14.23;;
55202;SDS011;41077;52.956;6.796;2023-04-15T03:13:11;21.73;;;13.65;;
55202;SDS011;41077;52.956;6.796;2023-04-15T03:15:37;20.33;;;13.27;;
55202;SDS011;41077;52.956;6.796;2023-04-15T03:18:03;20.17;;;13.55;;
55202;SDS011;41077;52.956;6.796;2023-04-15T03:20:28;20.23;;;13.10;;
55202;SDS011;41077;52.956;6.796;2023-04-15T03:22:54;19.13;;;12.77;;
55202;SDS011;41077;52.956;6.796;2023-04-15T03:25:20;17.55;;;12.70;;
55202;SDS011;41077;52.956;6.796;2023-04-15T03:27:46;22.48;;;14.02;;
55202;SDS011;41077;52.956;6.796;2023-04-15T03:30:11;22.75;;;14.95;;
55202;SDS011;41077;52.956;6.796;2023-04-15T03:32:37;19.33;;;14.52;;
55202;SDS011;41077;52.956;6.796;2023-04-15T03:35:03;26.38;;;15.02;;
55202;SDS011;41077;52.956;6.796;2023-04-15T03:37:29;23.35;;;13.95;;
55202;SDS011;41077;52.956;6.796;2023-04-15T03:39:55;21.45;;;14.70;;
55202;SDS011;41077;52.956;6.796;2023-04-15T03:42:20;23.23;;;13.70;;
55202;SDS011;41077;52.956;6.796;2023-04-15T03:44:46;20.05;;;13.30;;
55202;SDS011;41077;52.956;6.796;2023-04-15T03:47:12;20.33;;;14.75;;
55202;SDS011;41077;52.956;6.796;2023-04-15T03:49:37;23.17;;;14.77;;
55202;SDS011;41077;52.956;6.796;2023-04-15T03:52:03;24.00;;;15.18;;
55202;SDS011;41077;52.956;6.796;2023-04-15T03:54:29;21.42;;;14.70;;
55202;SDS011;41077;52.956;6.796;2023-04-15T03:56:55;23.13;;;14.70;;
55202;SDS011;41077;52.956;6.796;2023-04-15T03:59:21;19.25;;;14.40;;
55202;SDS011;41077;52.956;6.796;2023-04-15T04:01:47;21.77;;;14.68;;
55202;SDS011;41077;52.956;6.796;2023-04-15T04:04:13;21.98;;;15.40;;
55202;SDS011;41077;52.956;6.796;2023-04-15T04:06:38;21.80;;;15.05;;
55202;SDS011;41077;52.956;6.796;2023-04-15T04:09:04;28.65;;;15.32;;
55202;SDS011;41077;52.956;6.796;2023-04-15T04:11:30;23.98;;;16.25;;
55202;SDS011;41077;52.956;6.796;2023-04-15T04:13:57;24.83;;;15.80;;
55202;SDS011;41077;52.956;6.796;2023-04-15T04:16:23;24.98;;;16.45;;
55202;SDS011;41077;52.956;6.796;2023-04-15T04:18:48;26.83;;;16.10;;
55202;SDS011;41077;52.956;6.796;2023-04-15T04:21:14;32.17;;;19.02;;
55202;SDS011;41077;52.956;6.796;2023-04-15T04:23:40;24.17;;;16.42;;
55202;SDS011;41077;52.956;6.796;2023-04-15T04:26:06;24.20;;;16.67;;
55202;SDS011;41077;52.956;6.796;2023-04-15T04:28:32;29.33;;;17.98;;
55202;SDS011;41077;52.956;6.796;2023-04-15T04:30:59;27.35;;;18.38;;
55202;SDS011;41077;52.956;6.796;2023-04-15T04:33:25;31.30;;;17.55;;
55202;SDS011;41077;52.956;6.796;2023-04-15T04:35:50;30.85;;;18.25;;
55202;SDS011;41077;52.956;6.796;2023-04-15T04:38:16;28.33;;;18.83;;
55202;SDS011;41077;52.956;6.796;2023-04-15T04:40:42;28.58;;;17.20;;
55202;SDS011;41077;52.956;6.796;2023-04-15T04:43:07;30.83;;;18.15;;
55202;SDS011;41077;52.956;6.796;2023-04-15T04:45:34;30.52;;;17.42;;
55202;SDS011;41077;52.956;6.796;2023-04-15T04:48:00;29.45;;;17.00;;
55202;SDS011;41077;52.956;6.796;2023-04-15T04:50:25;35.38;;;18.77;;
55202;SDS011;41077;52.956;6.796;2023-04-15T04:52:51;24.50;;;15.90;;
55202;SDS011;41077;52.956;6.796;2023-04-15T04:55:17;30.05;;;15.98;;
55202;SDS011;41077;52.956;6.796;2023-04-15T04:57:42;23.75;;;15.02;;
55202;SDS011;41077;52.956;6.796;2023-04-15T05:00:08;24.20;;;16.15;;
55202;SDS011;41077;52.956;6.796;2023-04-15T05:02:34;27.88;;;17.33;;
55202;SDS011;41077;52.956;6.796;2023-04-15T05:05:00;27.95;;;17.42;;
55202;SDS011;41077;52.956;6.796;2023-04-15T05:07:26;31.05;;;19.23;;
55202;SDS011;41077;52.956;6.796;2023-04-15T05:09:52;29.35;;;17.98;;
55202;SDS011;41077;52.956;6.796;2023-04-15T05:12:17;40.47;;;23.13;;
55202;SDS011;41077;52.956;6.796;2023-04-15T05:14:43;38.22;;;22.52;;
55202;SDS011;41077;52.956;6.796;2023-04-15T05:17:10;35.58;;;23.00;;
55202;SDS011;41077;52.956;6.796;2023-04-15T05:19:36;40.47;;;22.30;;
55202;SDS011;41077;52.956;6.796;2023-04-15T05:22:02;36.90;;;21.35;;
55202;SDS011;41077;52.956;6.796;2023-04-15T05:24:28;36.75;;;21.15;;
55202;SDS011;41077;52.956;6.796;2023-04-15T05:26:53;29.85;;;19.58;;
55202;SDS011;41077;52.956;6.796;2023-04-15T05:29:20;34.45;;;21.27;;
55202;SDS011;41077;52.956;6.796;2023-04-15T05:31:46;33.63;;;20.20;;
55202;SDS011;41077;52.956;6.796;2023-04-15T05:34:11;37.92;;;20.42;;
55202;SDS011;41077;52.956;6.796;2023-04-15T05:36:39;34.97;;;20.42;;
55202;SDS011;41077;52.956;6.796;2023-04-15T05:39:05;37.58;;;21.60;;
55202;SDS011;41077;52.956;6.796;2023-04-15T05:41:31;31.70;;;20.77;;
55202;SDS011;41077;52.956;6.796;2023-04-15T05:43:57;36.90;;;21.42;;
55202;SDS011;41077;52.956;6.796;2023-04-15T05:46:22;32.95;;;20.30;;
55202;SDS011;41077;52.956;6.796;2023-04-15T05:48:48;30.80;;;19.63;;
55202;SDS011;41077;52.956;6.796;2023-04-15T05:51:14;30.40;;;19.98;;
55202;SDS011;41077;52.956;6.796;2023-04-15T05:53:40;30.10;;;19.90;;
55202;SDS011;41077;52.956;6.796;2023-04-15T05:56:06;30.23;;;20.02;;
55202;SDS011;41077;52.956;6.796;2023-04-15T05:58:31;31.88;;;20.42;;
55202;SDS011;41077;52.956;6.796;2023-04-15T06:00:57;38.85;;;22.27;;
55202;SDS011;41077;52.956;6.796;2023-04-15T06:03:23;36.38;;;23.58;;
55202;SDS011;41077;52.956;6.796;2023-04-15T06:05:49;30.92;;;21.08;;
55202;SDS011;41077;52.956;6.796;2023-04-15T06:08:15;33.35;;;21.40;;
55202;SDS011;41077;52.956;6.796;2023-04-15T06:10:41;33.58;;;21.67;;
55202;SDS011;41077;52.956;6.796;2023-04-15T06:13:06;32.65;;;21.02;;
55202;SDS011;41077;52.956;6.796;2023-04-15T06:15:32;34.08;;;21.38;;
55202;SDS011;41077;52.956;6.796;2023-04-15T06:17:58;31.23;;;20.88;;
55202;SDS011;41077;52.956;6.796;2023-04-15T06:20:23;35.47;;;22.52;;
55202;SDS011;41077;52.956;6.796;2023-04-15T06:22:49;33.97;;;22.13;;
55202;SDS011;41077;52.956;6.796;2023-04-15T06:25:15;35.60;;;22.17;;
55202;SDS011;41077;52.956;6.796;2023-04-15T06:27:41;32.85;;;21.75;;
55202;SDS011;41077;52.956;6.796;2023-04-15T06:30:06;33.63;;;20.75;;
55202;SDS011;41077;52.956;6.796;2023-04-15T06:32:33;35.63;;;21.83;;
55202;SDS011;41077;52.956;6.796;2023-04-15T06:34:58;30.42;;;20.92;;
55202;SDS011;41077;52.956;6.796;2023-04-15T06:37:24;31.23;;;21.60;;
55202;SDS011;41077;52.956;6.796;2023-04-15T06:39:50;30.90;;;21.50;;
55202;SDS011;41077;52.956;6.796;2023-04-15T06:42:15;28.30;;;20.42;;
55202;SDS011;41077;52.956;6.796;2023-04-15T06:44:41;32.05;;;20.98;;
55202;SDS011;41077;52.956;6.796;2023-04-15T06:47:07;32.35;;;20.42;;
55202;SDS011;41077;52.956;6.796;2023-04-15T06:49:33;27.73;;;20.50;;
55202;SDS011;41077;52.956;6.796;2023-04-15T06:51:59;31.50;;;20.30;;
55202;SDS011;41077;52.956;6.796;2023-04-15T06:54:25;29.05;;;20.67;;
55202;SDS011;41077;52.956;6.796;2023-04-15T06:56:51;26.67;;;20.13;;
55202;SDS011;41077;52.956;6.796;2023-04-15T06:59:17;25.45;;;18.92;;
55202;SDS011;41077;52.956;6.796;2023-04-15T07:01:43;25.10;;;19.52;;
55202;SDS011;41077;52.956;6.796;2023-04-15T07:04:09;28.30;;;19.17;;
55202;SDS011;41077;52.956;6.796;2023-04-15T07:06:35;24.58;;;18.83;;
55202;SDS011;41077;52.956;6.796;2023-04-15T07:09:01;25.10;;;18.50;;
55202;SDS011;41077;52.956;6.796;2023-04-15T07:11:27;23.52;;;18.30;;
55202;SDS011;41077;52.956;6.796;2023-04-15T07:13:53;28.42;;;19.38;;
55202;SDS011;41077;52.956;6.796;2023-04-15T07:16:18;27.48;;;18.83;;
55202;SDS011;41077;52.956;6.796;2023-04-15T07:18:45;27.45;;;18.42;;
55202;SDS011;41077;52.956;6.796;2023-04-15T07:21:10;26.50;;;18.48;;
55202;SDS011;41077;52.956;6.796;2023-04-15T07:23:36;25.85;;;17.50;;
55202;SDS011;41077;52.956;6.796;2023-04-15T07:26:02;23.45;;;17.83;;
55202;SDS011;41077;52.956;6.796;2023-04-15T07:28:28;26.38;;;16.50;;
55202;SDS011;41077;52.956;6.796;2023-04-15T07:30:55;28.92;;;18.25;;
55202;SDS011;41077;52.956;6.796;2023-04-15T07:33:23;24.65;;;17.17;;
55202;SDS011;41077;52.956;6.796;2023-04-15T07:35:49;25.02;;;17.15;;
55202;SDS011;41077;52.956;6.796;2023-04-15T07:38:15;26.38;;;17.35;;
55202;SDS011;41077;52.956;6.796;2023-04-15T07:40:40;21.63;;;16.88;;
55202;SDS011;41077;52.956;6.796;2023-04-15T07:43:06;20.17;;;15.85;;
55202;SDS011;41077;52.956;6.796;2023-04-15T07:45:32;22.83;;;15.82;;
55202;SDS011;41077;52.956;6.796;2023-04-15T07:47:59;21.13;;;14.80;;
55202;SDS011;41077;52.956;6.796;2023-04-15T07:50:26;26.33;;;16.15;;
55202;SDS011;41077;52.956;6.796;2023-04-15T07:52:52;33.88;;;15.10;;
55202;SDS011;41077;52.956;6.796;2023-04-15T07:55:18;19.45;;;13.70;;
55202;SDS011;41077;52.956;6.796;2023-04-15T07:57:47;20.08;;;14.80;;
55202;SDS011;41077;52.956;6.796;2023-04-15T08:00:13;23.52;;;14.38;;
55202;SDS011;41077;52.956;6.796;2023-04-15T08:02:40;18.10;;;11.48;;
55202;SDS011;41077;52.956;6.796;2023-04-15T08:05:07;16.60;;;11.00;;
55202;SDS011;41077;52.956;6.796;2023-04-15T08:07:33;15.15;;;9.15;;
55202;SDS011;41077;52.956;6.796;2023-04-15T08:10:00;18.60;;;9.48;;
55202;SDS011;41077;52.956;6.796;2023-04-15T08:12:26;16.27;;;8.13;;
55202;SDS011;41077;52.956;6.796;2023-04-15T08:14:52;12.10;;;7.28;;
55202;SDS011;41077;52.956;6.796;2023-04-15T08:17:19;13.68;;;7.88;;
55202;SDS011;41077;52.956;6.796;2023-04-15T08:19:44;13.27;;;8.60;;
55202;SDS011;41077;52.956;6.796;2023-04-15T08:22:12;14.05;;;7.90;;
55202;SDS011;41077;52.956;6.796;2023-04-15T08:24:38;15.18;;;7.90;;
55202;SDS011;41077;52.956;6.796;2023-04-15T08:27:04;13.65;;;7.70;;
55202;SDS011;41077;52.956;6.796;2023-04-15T08:29:30;8.68;;;7.30;;
55202;SDS011;41077;52.956;6.796;2023-04-15T08:31:58;11.43;;;7.72;;
55202;SDS011;41077;52.956;6.796;2023-04-15T08:34:24;9.73;;;6.88;;
55202;SDS011;41077;52.956;6.796;2023-04-15T08:36:50;8.85;;;6.63;;
55202;SDS011;41077;52.956;6.796;2023-04-15T08:39:16;9.52;;;6.95;;
55202;SDS011;41077;52.956;6.796;2023-04-15T08:41:46;10.85;;;6.38;;
55202;SDS011;41077;52.956;6.796;2023-04-15T08:44:15;8.63;;;5.85;;
55202;SDS011;41077;52.956;6.796;2023-04-15T08:46:42;11.10;;;5.75;;
55202;SDS011;41077;52.956;6.796;2023-04-15T08:49:11;10.43;;;6.30;;
55202;SDS011;41077;52.956;6.796;2023-04-15T08:51:38;8.88;;;5.75;;
55202;SDS011;41077;52.956;6.796;2023-04-15T08:54:04;8.10;;;5.40;;
55202;SDS011;41077;52.956;6.796;2023-04-15T08:56:32;9.75;;;5.75;;
55202;SDS011;41077;52.956;6.796;2023-04-15T08:58:58;9.73;;;5.85;;
55202;SDS011;41077;52.956;6.796;2023-04-15T09:01:24;16.05;;;5.18;;
55202;SDS011;41077;52.956;6.796;2023-04-15T09:03:51;9.00;;;4.80;;
55202;SDS011;41077;52.956;6.796;2023-04-15T09:06:19;9.35;;;5.07;;
55202;SDS011;41077;52.956;6.796;2023-04-15T09:08:45;12.15;;;4.90;;
55202;SDS011;41077;52.956;6.796;2023-04-15T09:11:11;6.43;;;4.63;;
55202;SDS011;41077;52.956;6.796;2023-04-15T09:13:37;9.07;;;5.68;;
55202;SDS011;41077;52.956;6.796;2023-04-15T09:16:04;8.90;;;4.55;;
55202;SDS011;41077;52.956;6.796;2023-04-15T09:18:31;8.90;;;4.47;;
55202;SDS011;41077;52.956;6.796;2023-04-15T09:21:05;6.88;;;3.85;;
55202;SDS011;41077;52.956;6.796;2023-04-15T09:23:36;5.22;;;3.92;;
55202;SDS011;41077;52.956;6.796;2023-04-15T09:26:03;6.28;;;4.05;;
55202;SDS011;41077;52.956;6.796;2023-04-15T09:28:29;6.13;;;3.75;;
55202;SDS011;41077;52.956;6.796;2023-04-15T09:30:56;8.73;;;4.35;;
55202;SDS011;41077;52.956;6.796;2023-04-15T09:33:23;6.45;;;4.00;;
55202;SDS011;41077;52.956;6.796;2023-04-15T09:36:01;7.90;;;4.93;;
55202;SDS011;41077;52.956;6.796;2023-04-15T09:38:29;14.02;;;4.65;;
55202;SDS011;41077;52.956;6.796;2023-04-15T09:40:56;6.43;;;3.97;;
55202;SDS011;41077;52.956;6.796;2023-04-15T09:43:22;9.55;;;4.00;;
55202;SDS011;41077;52.956;6.796;2023-04-15T09:46:01;6.40;;;3.85;;
55202;SDS011;41077;52.956;6.796;2023-04-15T09:48:27;9.15;;;3.60;;
55202;SDS011;41077;52.956;6.796;2023-04-15T09:50:58;7.35;;;3.40;;
55202;SDS011;41077;52.956;6.796;2023-04-15T09:53:25;5.25;;;3.45;;
55202;SDS011;41077;52.956;6.796;2023-04-15T09:55:53;3.95;;;3.28;;
55202;SDS011;41077;52.956;6.796;2023-04-15T09:58:23;7.95;;;3.55;;
55202;SDS011;41077;52.956;6.796;2023-04-15T10:00:51;4.35;;;3.53;;
55202;SDS011;41077;52.956;6.796;2023-04-15T10:05:52;5.22;;;4.43;;
55202;SDS011;41077;52.956;6.796;2023-04-15T10:08:20;5.22;;;3.15;;
55202;SDS011;41077;52.956;6.796;2023-04-15T10:10:48;7.05;;;3.83;;
55202;SDS011;41077;52.956;6.796;2023-04-15T10:13:16;5.45;;;3.20;;
55202;SDS011;41077;52.956;6.796;2023-04-15T10:15:43;4.22;;;3.20;;
55202;SDS011;41077;52.956;6.796;2023-04-15T10:18:16;6.13;;;3.47;;
55202;SDS011;41077;52.956;6.796;2023-04-15T10:20:44;4.72;;;3.33;;
55202;SDS011;41077;52.956;6.796;2023-04-15T10:23:11;7.78;;;3.00;;
55202;SDS011;41077;52.956;6.796;2023-04-15T10:25:38;7.15;;;3.50;;
55202;SDS011;41077;52.956;6.796;2023-04-15T10:28:05;6.28;;;3.58;;
55202;SDS011;41077;52.956;6.796;2023-04-15T10:30:32;7.15;;;3.83;;
55202;SDS011;41077;52.956;6.796;2023-04-15T10:32:59;4.45;;;3.40;;
55202;SDS011;41077;52.956;6.796;2023-04-15T10:35:27;4.57;;;3.67;;
55202;SDS011;41077;52.956;6.796;2023-04-15T10:37:54;5.90;;;3.30;;
55202;SDS011;41077;52.956;6.796;2023-04-15T10:40:27;7.70;;;3.40;;
55202;SDS011;41077;52.956;6.796;2023-04-15T10:42:58;7.85;;;3.70;;
55202;SDS011;41077;52.956;6.796;2023-04-15T10:45:32;8.38;;;2.63;;
55202;SDS011;41077;52.956;6.796;2023-04-15T10:48:03;7.03;;;2.83;;
55202;SDS011;41077;52.956;6.796;2023-04-15T10:50:32;6.22;;;2.83;;
55202;SDS011;41077;52.956;6.796;2023-04-15T10:52:58;4.68;;;2.80;;
55202;SDS011;41077;52.956;6.796;2023-04-15T10:55:30;4.90;;;3.05;;
55202;SDS011;41077;52.956;6.796;2023-04-15T10:57:58;7.07;;;3.75;;
55202;SDS011;41077;52.956;6.796;2023-04-15T11:00:27;4.72;;;2.88;;
55202;SDS011;41077;52.956;6.796;2023-04-15T11:03:07;7.15;;;3.30;;
55202;SDS011;41077;52.956;6.796;2023-04-15T11:05:51;5.53;;;2.80;;
55202;SDS011;41077;52.956;6.796;2023-04-15T11:08:20;5.45;;;3.45;;
55202;SDS011;41077;52.956;6.796;2023-04-15T11:12:09;4.95;;;3.60;;
55202;SDS011;41077;52.956;6.796;2023-04-15T11:14:28;11.68;;;4.22;;
55202;SDS011;41077;52.956;6.796;2023-04-15T11:16:54;6.00;;;2.80;;
55202;SDS011;41077;52.956;6.796;2023-04-15T11:19:20;13.75;;;3.78;;
55202;SDS011;41077;52.956;6.796;2023-04-15T11:21:46;5.63;;;3.10;;
55202;SDS011;41077;52.956;6.796;2023-04-15T11:24:22;6.25;;;2.97;;
55202;SDS011;41077;52.956;6.796;2023-04-15T11:26:55;10.05;;;3.47;;
55202;SDS011;41077;52.956;6.796;2023-04-15T11:29:27;9.90;;;3.40;;
55202;SDS011;41077;52.956;6.796;2023-04-15T11:32:05;10.32;;;3.53;;
55202;SDS011;41077;52.956;6.796;2023-04-15T11:34:33;8.40;;;3.25;;
55202;SDS011;41077;52.956;6.796;2023-04-15T11:37:02;9.38;;;4.22;;
55202;SDS011;41077;52.956;6.796;2023-04-15T11:39:30;7.47;;;3.55;;
55202;SDS011;41077;52.956;6.796;2023-04-15T11:41:56;7.90;;;3.03;;
55202;SDS011;41077;52.956;6.796;2023-04-15T11:44:21;6.60;;;3.00;;
55202;SDS011;41077;52.956;6.796;2023-04-15T11:46:47;7.55;;;3.13;;
55202;SDS011;41077;52.956;6.796;2023-04-15T11:49:28;8.05;;;4.03;;
55202;SDS011;41077;52.956;6.796;2023-04-15T11:51:58;8.93;;;3.85;;
55202;SDS011;41077;52.956;6.796;2023-04-15T11:54:25;11.70;;;4.63;;
55202;SDS011;41077;52.956;6.796;2023-04-15T11:56:51;10.30;;;4.28;;
55202;SDS011;41077;52.956;6.796;2023-04-15T11:59:18;9.45;;;3.70;;
55202;SDS011;41077;52.956;6.796;2023-04-15T12:01:44;12.32;;;4.35;;
55202;SDS011;41077;52.956;6.796;2023-04-15T12:06:38;5.57;;;3.03;;
55202;SDS011;41077;52.956;6.796;2023-04-15T12:09:10;8.60;;;4.25;;
55202;SDS011;41077;52.956;6.796;2023-04-15T12:14:18;9.48;;;3.22;;
55202;SDS011;41077;52.956;6.796;2023-04-15T12:16:51;9.40;;;4.22;;
55202;SDS011;41077;52.956;6.796;2023-04-15T12:19:22;8.18;;;3.35;;
55202;SDS011;41077;52.956;6.796;2023-04-15T12:21:51;7.47;;;3.10;;
55202;SDS011;41077;52.956;6.796;2023-04-15T12:24:21;6.90;;;3.63;;
55202;SDS011;41077;52.956;6.796;2023-04-15T12:26:48;5.90;;;2.60;;
55202;SDS011;41077;52.956;6.796;2023-04-15T12:29:18;6.65;;;2.92;;
55202;SDS011;41077;52.956;6.796;2023-04-15T12:31:56;8.05;;;2.65;;
55202;SDS011;41077;52.956;6.796;2023-04-15T12:34:31;10.23;;;3.17;;
55202;SDS011;41077;52.956;6.796;2023-04-15T12:36:58;8.32;;;2.75;;
55202;SDS011;41077;52.956;6.796;2023-04-15T12:39:26;7.15;;;2.95;;
55202;SDS011;41077;52.956;6.796;2023-04-15T12:41:55;10.18;;;2.97;;
55202;SDS011;41077;52.956;6.796;2023-04-15T12:44:21;8.50;;;2.92;;
55202;SDS011;41077;52.956;6.796;2023-04-15T12:46:48;9.05;;;4.05;;
55202;SDS011;41077;52.956;6.796;2023-04-15T12:49:14;9.30;;;3.45;;
55202;SDS011;41077;52.956;6.796;2023-04-15T12:51:43;9.43;;;2.67;;
55202;SDS011;41077;52.956;6.796;2023-04-15T12:54:09;12.15;;;3.17;;
55202;SDS011;41077;52.956;6.796;2023-04-15T12:56:35;8.43;;;2.58;;
55202;SDS011;41077;52.956;6.796;2023-04-15T12:59:01;11.65;;;3.20;;
55202;SDS011;41077;52.956;6.796;2023-04-15T13:01:26;13.07;;;3.15;;
55202;SDS011;41077;52.956;6.796;2023-04-15T13:03:52;9.50;;;2.80;;
55202;SDS011;41077;52.956;6.796;2023-04-15T13:06:18;10.50;;;3.83;;
55202;SDS011;41077;52.956;6.796;2023-04-15T13:08:44;13.98;;;4.85;;
55202;SDS011;41077;52.956;6.796;2023-04-15T13:11:09;13.85;;;4.00;;
55202;SDS011;41077;52.956;6.796;2023-04-15T13:13:35;8.63;;;3.10;;
55202;SDS011;41077;52.956;6.796;2023-04-15T13:16:01;8.98;;;3.22;;
55202;SDS011;41077;52.956;6.796;2023-04-15T13:18:27;18.35;;;4.10;;
55202;SDS011;41077;52.956;6.796;2023-04-15T13:20:55;10.00;;;4.15;;
55202;SDS011;41077;52.956;6.796;2023-04-15T13:23:21;10.07;;;3.85;;
55202;SDS011;41077;52.956;6.796;2023-04-15T13:25:46;12.27;;;4.47;;
55202;SDS011;41077;52.956;6.796;2023-04-15T13:28:12;13.63;;;4.30;;
55202;SDS011;41077;52.956;6.796;2023-04-15T13:30:38;9.15;;;4.20;;
55202;SDS011;41077;52.956;6.796;2023-04-15T13:33:04;11.00;;;5.00;;
55202;SDS011;41077;52.956;6.796;2023-04-15T13:35:31;11.65;;;5.65;;
55202;SDS011;41077;52.956;6.796;2023-04-15T13:37:57;10.82;;;3.65;;
55202;SDS011;41077;52.956;6.796;2023-04-15T13:40:22;11.95;;;4.05;;
55202;SDS011;41077;52.956;6.796;2023-04-15T13:42:48;16.00;;;4.13;;
55202;SDS011;41077;52.956;6.796;2023-04-15T13:45:15;11.43;;;3.70;;
55202;SDS011;41077;52.956;6.796;2023-04-15T13:47:41;9.13;;;4.00;;
55202;SDS011;41077;52.956;6.796;2023-04-15T13:50:07;13.88;;;4.10;;
55202;SDS011;41077;52.956;6.796;2023-04-15T13:52:33;11.13;;;3.72;;
55202;SDS011;41077;52.956;6.796;2023-04-15T13:54:59;15.15;;;3.70;;
55202;SDS011;41077;52.956;6.796;2023-04-15T13:57:24;9.23;;;3.70;;
55202;SDS011;41077;52.956;6.796;2023-04-15T13:59:50;14.00;;;4.10;;
55202;SDS011;41077;52.956;6.796;2023-04-15T14:02:16;18.38;;;4.20;;
55202;SDS011;41077;52.956;6.796;2023-04-15T14:04:42;19.55;;;4.35;;
55202;SDS011;41077;52.956;6.796;2023-04-15T14:07:07;11.95;;;3.80;;
55202;SDS011;41077;52.956;6.796;2023-04-15T14:09:33;11.40;;;4.07;;
55202;SDS011;41077;52.956;6.796;2023-04-15T14:11:59;10.77;;;4.00;;
55202;SDS011;41077;52.956;6.796;2023-04-15T14:14:26;9.20;;;4.05;;
55202;SDS011;41077;52.956;6.796;2023-04-15T14:16:52;14.43;;;4.72;;
55202;SDS011;41077;52.956;6.796;2023-04-15T14:19:18;13.85;;;4.65;;
55202;SDS011;41077;52.956;6.796;2023-04-15T14:21:44;12.70;;;4.75;;
55202;SDS011;41077;52.956;6.796;2023-04-15T14:24:10;13.43;;;4.50;;
55202;SDS011;41077;52.956;6.796;2023-04-15T14:26:36;11.63;;;5.25;;
55202;SDS011;41077;52.956;6.796;2023-04-15T14:29:01;14.43;;;4.85;;
55202;SDS011;41077;52.956;6.796;2023-04-15T14:31:27;13.82;;;4.28;;
55202;SDS011;41077;52.956;6.796;2023-04-15T14:33:53;12.18;;;4.78;;
55202;SDS011;41077;52.956;6.796;2023-04-15T14:36:19;14.63;;;5.07;;
55202;SDS011;41077;52.956;6.796;2023-04-15T14:38:44;16.27;;;4.03;;
55202;SDS011;41077;52.956;6.796;2023-04-15T14:41:10;8.52;;;4.30;;
55202;SDS011;41077;52.956;6.796;2023-04-15T14:43:36;15.07;;;4.10;;